Time;durP1;ratioP1;P1;durP2;ratioP2;P2;SDS_P1;SDS_P2;PMS_P1;PMS_P2;Temp;Humidity;BMP_temperature;BMP_pressure;BME280_temperature;BME280_humidity;BME280_pressure;Samples;Min_cycle;Max_cycle;Signal;HPM_P1;HPM_P2
2021/01/27 00:01:12;;;;;;;4.40;3.60;;;12.60;42.70;;;;;;5021894;28;20201;-44
2021/01/27 00:03:38;;;;;;;4.27;3.60;;;12.60;42.60;;;;;;5020350;28;20614;-44
2021/01/27 00:06:04;;;;;;;4.30;3.90;;;12.60;42.30;;;;;;5023209;28;20450;-44
2021/01/27 00:08:30;;;;;;;3.87;2.70;;;12.60;42.30;;;;;;5026176;28;20935;-44
2021/01/27 00:10:55;;;;;;;3.27;2.97;;;12.70;42.60;;;;;;5030169;28;20203;-44
2021/01/27 00:13:21;;;;;;;3.93;3.53;;;12.70;43.50;;;;;;5029972;28;20201;-44
2021/01/27 00:15:47;;;;;;;3.60;3.30;;;12.60;41.50;;;;;;5028915;28;20259;-44
2021/01/27 00:18:15;;;;;;;4.33;3.60;;;12.70;42.00;;;;;;5021428;28;20205;-44
2021/01/27 00:20:41;;;;;;;3.40;3.10;;;12.70;42.20;;;;;;5024966;28;20472;-43
2021/01/27 00:23:07;;;;;;;4.60;4.20;;;12.70;41.90;;;;;;5019782;28;20900;-44
2021/01/27 00:25:35;;;;;;;4.10;3.70;;;12.80;42.80;;;;;;5025281;28;20440;-44
2021/01/27 00:28:01;;;;;;;4.97;4.57;;;12.80;42.20;;;;;;5026972;28;20446;-43
2021/01/27 00:30:33;;;;;;;4.17;3.73;;;12.70;41.00;;;;;;5028786;28;20440;-43
2021/01/27 00:32:59;;;;;;;4.37;3.97;;;12.40;40.20;;;;;;5028588;28;20424;-43
2021/01/27 00:35:31;;;;;;;4.43;4.03;;;12.00;40.50;;;;;;5023418;28;20433;-43
2021/01/27 00:37:59;;;;;;;7.20;4.27;;;11.00;41.50;;;;;;5024769;28;20428;-42
2021/01/27 00:40:24;;;;;;;4.90;3.97;;;10.30;43.20;;;;;;5028783;28;20436;-43
2021/01/27 00:42:50;;;;;;;5.10;4.60;;;10.00;43.90;;;;;;5029436;28;20428;-42
2021/01/27 00:45:17;;;;;;;6.90;3.73;;;9.60;45.80;;;;;;5026339;28;20201;-43
2021/01/27 00:47:43;;;;;;;7.03;3.90;;;9.40;46.40;;;;;;5029218;28;20870;-43
2021/01/27 00:50:09;;;;;;;4.07;3.67;;;9.40;46.60;;;;;;5026830;28;20579;-43
2021/01/27 00:52:35;;;;;;;4.73;3.87;;;9.20;46.80;;;;;;5029871;28;20264;-43
2021/01/27 00:55:01;;;;;;;4.67;4.20;;;9.00;47.30;;;;;;5029589;28;20523;-43
2021/01/27 00:57:27;;;;;;;5.00;4.50;;;8.80;47.90;;;;;;5025311;28;20208;-42
2021/01/27 00:59:52;;;;;;;5.20;3.93;;;8.90;48.10;;;;;;5025893;28;20431;-43
2021/01/27 01:02:18;;;;;;;5.00;4.03;;;8.70;48.30;;;;;;5021737;28;20203;-43
2021/01/27 01:04:44;;;;;;;5.20;4.70;;;8.50;48.70;;;;;;5027943;28;20201;-42
2021/01/27 01:07:09;;;;;;;4.60;4.20;;;8.40;49.00;;;;;;5021030;28;20654;-42
2021/01/27 01:09:35;;;;;;;6.93;4.37;;;8.50;49.10;;;;;;5028848;28;20239;-43
2021/01/27 01:12:02;;;;;;;4.80;4.30;;;8.40;49.00;;;;;;5027704;28;20221;-43
2021/01/27 01:14:27;;;;;;;5.97;4.20;;;8.20;49.60;;;;;;5025473;28;20440;-42
2021/01/27 01:16:53;;;;;;;4.87;4.37;;;8.10;50.00;;;;;;5029369;28;20196;-42
2021/01/27 01:19:19;;;;;;;9.27;4.53;;;8.20;50.00;;;;;;5023790;28;20443;-42
2021/01/27 01:21:44;;;;;;;5.70;4.27;;;8.10;50.00;;;;;;5028164;28;20683;-42
2021/01/27 01:24:10;;;;;;;5.03;4.53;;;8.00;50.20;;;;;;5027406;28;20519;-43
2021/01/27 01:26:36;;;;;;;6.73;4.70;;;8.10;50.60;;;;;;5028221;28;20272;-43
2021/01/27 01:29:02;;;;;;;5.37;4.43;;;8.10;50.00;;;;;;5028152;28;20228;-42
2021/01/27 01:31:27;;;;;;;4.67;4.23;;;8.10;50.00;;;;;;5023439;28;20202;-42
2021/01/27 01:33:53;;;;;;;4.40;4.00;;;7.90;50.30;;;;;;5022093;28;20437;-43
2021/01/27 01:36:19;;;;;;;5.67;4.37;;;7.70;50.80;;;;;;5028686;28;20197;-42
2021/01/27 01:38:45;;;;;;;6.30;4.50;;;7.80;50.80;;;;;;5028074;28;20284;-43
2021/01/27 01:41:11;;;;;;;6.57;4.67;;;7.60;51.20;;;;;;5021841;28;20197;-43
2021/01/27 01:43:39;;;;;;;7.33;5.40;;;7.70;51.50;;;;;;5024211;28;20461;-43
2021/01/27 01:46:11;;;;;;;6.47;4.80;;;7.60;51.50;;;;;;5015767;28;20487;-42
2021/01/27 01:49:02;;;;;;;6.77;4.47;;;7.60;51.50;;;;;;5027991;28;20868;-42
2021/01/27 01:51:32;;;;;;;7.57;4.93;;;7.80;51.40;;;;;;5024199;28;20455;-43
2021/01/27 01:54:08;;;;;;;4.73;4.33;;;7.70;51.30;;;;;;5025117;28;20451;-43
2021/01/27 01:56:37;;;;;;;8.37;4.60;;;7.80;51.20;;;;;;5023258;28;20436;-43
2021/01/27 01:59:06;;;;;;;5.10;4.30;;;7.60;51.30;;;;;;5028555;28;20436;-42
2021/01/27 02:01:32;;;;;;;6.40;4.70;;;7.50;51.90;;;;;;5022775;28;20503;-42
2021/01/27 02:03:59;;;;;;;6.10;4.63;;;7.50;51.70;;;;;;5031874;28;20941;-43
2021/01/27 02:06:25;;;;;;;8.70;4.67;;;7.50;51.90;;;;;;5022190;28;20471;-43
2021/01/27 02:08:55;;;;;;;7.83;4.80;;;7.40;51.90;;;;;;5028572;28;20510;-42
2021/01/27 02:11:46;;;;;;;5.80;4.30;;;7.50;51.90;;;;;;5022150;28;20448;-42
2021/01/27 02:14:52;;;;;;;5.27;4.13;;;7.50;51.70;;;;;;5031094;28;20444;-42
2021/01/27 02:17:26;;;;;;;4.70;3.93;;;7.50;51.70;;;;;;5034134;28;20439;-42
2021/01/27 02:20:29;;;;;;;7.33;3.97;;;7.40;51.70;;;;;;5029005;28;20790;-42
2021/01/27 02:23:35;;;;;;;5.03;4.33;;;7.40;51.80;;;;;;5017271;28;20505;-42
2021/01/27 02:26:21;;;;;;;5.10;3.30;;;7.40;51.70;;;;;;5030501;28;20444;-42
2021/01/27 02:29:13;;;;;;;4.50;3.87;;;7.40;51.50;;;;;;5031041;28;20514;-42
2021/01/27 02:31:51;;;;;;;5.50;4.70;;;7.60;51.70;;;;;;5028584;28;20566;-42
2021/01/27 02:34:35;;;;;;;5.50;4.10;;;7.60;51.50;;;;;;5025447;28;20451;-42
2021/01/27 02:37:09;;;;;;;4.93;4.13;;;7.80;51.40;;;;;;5030033;28;20452;-42
2021/01/27 02:39:44;;;;;;;8.60;4.40;;;7.80;51.40;;;;;;5027264;28;20862;-42
2021/01/27 02:42:21;;;;;;;4.30;3.77;;;7.50;51.40;;;;;;5031518;28;20489;-42
2021/01/27 02:44:55;;;;;;;6.43;5.20;;;7.50;51.70;;;;;;5024040;28;20451;-43
2021/01/27 02:47:31;;;;;;;7.70;4.27;;;7.60;51.80;;;;;;5032011;28;20505;-42
2021/01/27 02:50:00;;;;;;;7.30;4.20;;;7.60;51.60;;;;;;5028870;28;20537;-42
2021/01/27 02:52:38;;;;;;;7.40;4.47;;;7.70;51.40;;;;;;5029281;28;20443;-43
2021/01/27 02:55:17;;;;;;;4.60;4.10;;;7.70;51.20;;;;;;5029792;28;20507;-43
2021/01/27 02:58:40;;;;;;;8.83;4.40;;;7.60;51.20;;;;;;5029734;28;20483;-43
2021/01/27 03:01:12;;;;;;;6.80;4.20;;;7.60;51.30;;;;;;5023203;28;20444;-42
2021/01/27 03:03:47;;;;;;;6.27;4.50;;;7.60;51.30;;;;;;5027272;28;20478;-42
2021/01/27 03:06:16;;;;;;;5.40;4.03;;;7.70;51.30;;;;;;5021092;28;20477;-42
2021/01/27 03:08:52;;;;;;;6.50;4.13;;;7.70;51.30;;;;;;5030560;28;20479;-42
2021/01/27 03:11:23;;;;;;;4.87;4.37;;;7.80;51.30;;;;;;5029268;28;20479;-42
2021/01/27 03:13:49;;;;;;;4.80;4.30;;;7.70;51.30;;;;;;5029315;28;20433;-43
2021/01/27 03:16:19;;;;;;;5.00;3.93;;;7.70;51.30;;;;;;5021605;28;20448;-42
2021/01/27 03:18:54;;;;;;;4.47;4.03;;;7.70;50.90;;;;;;5022342;28;20429;-44
2021/01/27 03:21:25;;;;;;;9.23;4.73;;;7.70;51.30;;;;;;5026750;28;20436;-42
2021/01/27 03:24:04;;;;;;;4.10;3.70;;;7.70;51.40;;;;;;5026494;28;20443;-43
2021/01/27 03:26:40;;;;;;;4.67;4.23;;;7.70;52.00;;;;;;5031036;28;20432;-43
2021/01/27 03:29:23;;;;;;;4.70;3.77;;;7.70;51.30;;;;;;5031554;28;20899;-42
2021/01/27 03:31:52;;;;;;;4.30;3.97;;;7.70;51.50;;;;;;5025758;28;20468;-42
2021/01/27 03:34:23;;;;;;;4.40;3.90;;;7.70;51.50;;;;;;5028340;28;20475;-43
2021/01/27 03:37:02;;;;;;;4.60;3.77;;;7.60;51.80;;;;;;5026613;28;21172;-42
2021/01/27 03:39:33;;;;;;;4.60;4.20;;;7.60;52.00;;;;;;5031585;28;20436;-43
2021/01/27 03:42:05;;;;;;;5.93;4.20;;;7.60;52.10;;;;;;5028945;28;20444;-43
2021/01/27 03:44:43;;;;;;;4.37;3.97;;;7.60;51.80;;;;;;5031461;28;20860;-42
2021/01/27 03:47:15;;;;;;;4.20;3.50;;;7.70;51.50;;;;;;5031049;28;20428;-42
2021/01/27 03:50:19;;;;;;;4.97;3.63;;;7.70;51.30;;;;;;5019885;28;20496;-43
2021/01/27 03:52:51;;;;;;;6.30;3.90;;;7.70;51.20;;;;;;5024350;28;20451;-42
2021/01/27 03:55:17;;;;;;;4.40;3.80;;;7.80;51.10;;;;;;5028676;28;20447;-43
2021/01/27 03:57:48;;;;;;;3.60;3.30;;;7.70;51.00;;;;;;5030608;28;21306;-42
2021/01/27 04:00:14;;;;;;;4.83;3.90;;;7.70;51.30;;;;;;5028159;28;20193;-42
2021/01/27 04:02:40;;;;;;;4.67;3.80;;;7.70;51.60;;;;;;5022764;28;20668;-43
2021/01/27 04:05:07;;;;;;;4.27;3.90;;;7.70;51.60;;;;;;5026122;28;20436;-42
2021/01/27 04:07:33;;;;;;;5.67;4.10;;;7.70;51.50;;;;;;5029880;28;20571;-43
2021/01/27 04:09:58;;;;;;;4.47;3.97;;;7.60;51.40;;;;;;5028897;28;20940;-42
2021/01/27 04:12:24;;;;;;;5.87;4.10;;;7.50;51.80;;;;;;5022124;28;20202;-42
2021/01/27 04:14:49;;;;;;;4.57;3.70;;;7.50;51.70;;;;;;5027143;28;20189;-42
2021/01/27 04:17:24;;;;;;;5.63;3.97;;;7.60;51.70;;;;;;5029546;28;20288;-43
2021/01/27 04:19:49;;;;;;;5.93;4.10;;;7.50;51.50;;;;;;5024127;28;20547;-42
2021/01/27 04:22:15;;;;;;;6.20;4.60;;;7.50;51.50;;;;;;5028794;28;20444;-42
2021/01/27 04:24:40;;;;;;;4.73;4.17;;;7.40;51.60;;;;;;5021448;28;20221;-42
2021/01/27 04:27:06;;;;;;;4.80;4.20;;;7.40;51.70;;;;;;5029891;28;20197;-42
2021/01/27 04:29:31;;;;;;;8.93;4.40;;;7.30;52.00;;;;;;5028324;28;20319;-42
2021/01/27 04:31:57;;;;;;;5.93;4.77;;;7.30;52.00;;;;;;5026872;28;20213;-43
2021/01/27 04:34:22;;;;;;;6.07;4.40;;;7.10;52.20;;;;;;5028501;28;20672;-43
2021/01/27 04:36:48;;;;;;;6.07;4.20;;;7.00;52.40;;;;;;5030729;28;20193;-42
2021/01/27 04:39:14;;;;;;;7.00;5.10;;;7.00;52.50;;;;;;5029071;28;20239;-42
2021/01/27 04:41:41;;;;;;;6.20;4.27;;;7.00;52.50;;;;;;5027511;28;20608;-43
2021/01/27 04:44:07;;;;;;;5.43;4.80;;;7.10;52.40;;;;;;5029991;28;20227;-42
2021/01/27 04:46:37;;;;;;;6.03;5.00;;;7.10;52.40;;;;;;5028744;28;20519;-42
2021/01/27 04:49:28;;;;;;;6.23;5.30;;;6.90;52.70;;;;;;5025935;28;20689;-42
2021/01/27 04:52:20;;;;;;;5.10;4.60;;;6.70;53.30;;;;;;5026666;28;20522;-43
2021/01/27 04:54:59;;;;;;;7.80;5.60;;;6.60;53.80;;;;;;5028443;28;20513;-43
2021/01/27 04:57:43;;;;;;;7.90;7.10;;;6.60;53.80;;;;;;5014775;28;20441;-42
2021/01/27 05:00:27;;;;;;;8.23;6.30;;;6.70;53.60;;;;;;5012180;28;21210;-42
2021/01/27 05:03:20;;;;;;;6.20;5.30;;;6.70;53.40;;;;;;5024659;28;20448;-43
2021/01/27 05:05:53;;;;;;;6.87;5.03;;;6.60;53.40;;;;;;5029054;28;20490;-42
2021/01/27 05:08:25;;;;;;;8.53;4.90;;;6.30;54.00;;;;;;5028062;28;20564;-42
2021/01/27 05:10:54;;;;;;;6.87;4.87;;;6.10;54.90;;;;;;5029362;28;20440;-42
2021/01/27 05:13:34;;;;;;;5.27;4.77;;;6.00;55.30;;;;;;5026452;28;20822;-43
2021/01/27 05:16:12;;;;;;;5.87;5.27;;;5.80;55.70;;;;;;5027230;28;20534;-43
2021/01/27 05:18:37;;;;;;;6.57;4.90;;;5.50;56.10;;;;;;5028776;28;20470;-42
2021/01/27 05:21:05;;;;;;;6.03;5.27;;;5.60;56.30;;;;;;5030027;28;20432;-42
2021/01/27 05:23:32;;;;;;;6.90;5.30;;;5.60;56.20;;;;;;5019099;28;20276;-43
2021/01/27 05:26:09;;;;;;;6.73;5.00;;;5.70;56.40;;;;;;5028819;28;20440;-42
2021/01/27 05:28:44;;;;;;;6.30;5.70;;;5.60;56.50;;;;;;5029229;28;20507;-42
2021/01/27 05:31:10;;;;;;;9.70;5.23;;;5.60;56.70;;;;;;5019304;28;20490;-42
2021/01/27 05:33:41;;;;;;;6.50;5.90;;;5.50;56.50;;;;;;5024595;28;20514;-42
2021/01/27 05:36:12;;;;;;;6.50;5.27;;;5.40;56.90;;;;;;5026947;28;20204;-42
2021/01/27 05:38:38;;;;;;;8.60;5.50;;;5.20;57.10;;;;;;5033216;28;20819;-42
2021/01/27 05:41:26;;;;;;;5.93;5.30;;;5.10;57.60;;;;;;5033074;28;20440;-43
2021/01/27 05:44:03;;;;;;;5.63;5.10;;;5.00;58.00;;;;;;5032416;28;20444;-42
2021/01/27 05:46:32;;;;;;;8.20;5.50;;;4.90;58.20;;;;;;5029142;28;20439;-42
2021/01/27 05:48:58;;;;;;;11.13;5.00;;;4.80;58.10;;;;;;5020985;28;20483;-43
2021/01/27 05:51:36;;;;;;;5.90;5.30;;;4.70;58.60;;;;;;5024912;28;20436;-42
2021/01/27 05:54:20;;;;;;;10.00;5.23;;;4.50;59.20;;;;;;5026965;28;20433;-42
2021/01/27 05:56:45;;;;;;;8.43;6.30;;;4.30;59.40;;;;;;5031655;28;20444;-42
2021/01/27 05:59:22;;;;;;;8.07;5.90;;;4.40;60.10;;;;;;5033166;28;20436;-42
2021/01/27 06:01:50;;;;;;;10.00;6.50;;;4.40;59.80;;;;;;5022007;28;20193;-42
2021/01/27 06:04:20;;;;;;;7.67;5.47;;;4.40;60.00;;;;;;5029898;28;20442;-42
2021/01/27 06:06:46;;;;;;;8.60;5.63;;;4.50;60.00;;;;;;5029669;28;20529;-42
2021/01/27 06:09:12;;;;;;;10.50;6.97;;;4.50;59.80;;;;;;5027791;28;20526;-42
2021/01/27 06:11:39;;;;;;;9.53;5.90;;;4.90;59.10;;;;;;5033146;28;20196;-42
2021/01/27 06:14:16;;;;;;;11.77;7.00;;;5.20;58.10;;;;;;5029863;28;20515;-43
2021/01/27 06:16:45;;;;;;;6.17;4.70;;;5.30;57.60;;;;;;5028452;28;20459;-43
2021/01/27 06:19:15;;;;;;;11.13;8.47;;;5.70;59.10;;;;;;5031804;28;20435;-43
2021/01/27 06:21:59;;;;;;;9.30;6.87;;;6.10;59.40;;;;;;5032672;28;20443;-43
2021/01/27 06:25:06;;;;;;;10.70;6.27;;;6.20;57.70;;;;;;5032950;28;20440;-43
2021/01/27 06:27:44;;;;;;;7.80;5.43;;;6.60;57.00;;;;;;5034003;28;20489;-43
2021/01/27 06:30:47;;;;;;;9.80;5.63;;;6.70;56.60;;;;;;5032669;28;20892;-43
2021/01/27 06:33:18;;;;;;;8.10;6.00;;;6.90;56.00;;;;;;5028662;28;20443;-44
2021/01/27 06:35:56;;;;;;;6.20;5.37;;;7.10;55.40;;;;;;5029274;28;21020;-43
2021/01/27 06:38:46;;;;;;;6.50;5.87;;;7.10;54.50;;;;;;5020561;28;20447;-43
2021/01/27 06:41:30;;;;;;;5.63;5.03;;;7.20;53.60;;;;;;5032477;28;20943;-43
2021/01/27 06:43:59;;;;;;;4.30;3.90;;;7.20;52.50;;;;;;5031449;28;20501;-43
2021/01/27 06:46:49;;;;;;;5.80;4.20;;;7.30;52.70;;;;;;5035415;28;20459;-43
2021/01/27 06:49:43;;;;;;;7.50;4.30;;;7.50;52.00;;;;;;5029893;28;20822;-44
2021/01/27 06:52:24;;;;;;;5.93;3.30;;;7.50;51.80;;;;;;5020090;28;20495;-44
2021/01/27 06:55:10;;;;;;;5.57;3.90;;;7.30;51.10;;;;;;5031043;28;20477;-43
2021/01/27 06:58:10;;;;;;;5.30;3.80;;;7.60;51.70;;;;;;5025423;28;20437;-43
2021/01/27 07:00:59;;;;;;;3.00;2.47;;;7.40;49.90;;;;;;5034049;28;20447;-44
2021/01/27 07:03:40;;;;;;;3.30;2.90;;;7.20;50.80;;;;;;5021571;28;21189;-43
2021/01/27 07:06:33;;;;;;;4.37;3.47;;;7.30;51.50;;;;;;5023853;28;20459;-43
2021/01/27 07:09:16;;;;;;;3.87;3.33;;;7.70;50.40;;;;;;5025378;28;20565;-43
2021/01/27 07:12:02;;;;;;;5.10;2.90;;;7.80;49.90;;;;;;5028517;28;20953;-43
2021/01/27 07:15:01;;;;;;;2.70;2.50;;;7.90;49.50;;;;;;5030868;28;20471;-44
2021/01/27 07:17:48;;;;;;;4.97;2.87;;;7.90;49.10;;;;;;5030552;28;20448;-43
2021/01/27 07:20:33;;;;;;;4.27;3.17;;;7.90;48.70;;;;;;5031723;28;20482;-43
2021/01/27 07:23:07;;;;;;;3.50;3.20;;;7.80;49.30;;;;;;5023299;28;20448;-43
2021/01/27 07:25:52;;;;;;;3.23;2.93;;;7.90;49.00;;;;;;5022704;28;20452;-44
2021/01/27 07:28:21;;;;;;;7.87;2.90;;;7.90;49.00;;;;;;5019418;28;20444;-43
2021/01/27 07:31:16;;;;;;;3.97;3.33;;;8.20;48.90;;;;;;5030522;28;20518;-43
2021/01/27 07:34:26;;;;;;;4.80;3.07;;;8.40;48.50;;;;;;5030557;28;20440;-43
2021/01/27 07:37:10;;;;;;;4.17;3.53;;;8.60;48.00;;;;;;5020290;28;20466;-44
2021/01/27 07:40:11;;;;;;;4.13;2.97;;;8.80;47.90;;;;;;5023910;28;20519;-43
2021/01/27 07:42:42;;;;;;;5.07;3.30;;;9.00;47.90;;;;;;5027154;28;20451;-43
2021/01/27 07:45:15;;;;;;;3.53;3.23;;;9.20;47.70;;;;;;5023134;28;20470;-43
2021/01/27 07:48:10;;;;;;;5.43;2.87;;;9.30;47.20;;;;;;5018276;28;20439;-43
2021/01/27 07:50:37;;;;;;;4.57;3.40;;;9.40;47.10;;;;;;5032094;28;20495;-43
2021/01/27 07:53:20;;;;;;;4.43;4.03;;;9.50;46.50;;;;;;5021143;28;20432;-43
2021/01/27 07:56:01;;;;;;;8.67;3.80;;;9.40;46.00;;;;;;5026243;28;20465;-43
2021/01/27 07:58:40;;;;;;;6.90;3.70;;;9.30;46.10;;;;;;5031456;28;20448;-43
2021/01/27 08:01:09;;;;;;;4.93;3.53;;;9.10;46.60;;;;;;5022861;28;20520;-42
2021/01/27 08:03:52;;;;;;;5.07;3.10;;;9.10;47.10;;;;;;5016937;28;20852;-43
2021/01/27 08:06:21;;;;;;;4.23;3.53;;;9.10;47.80;;;;;;5025285;28;20451;-43
2021/01/27 08:09:22;;;;;;;3.93;3.50;;;9.10;47.50;;;;;;5024673;28;20574;-43
2021/01/27 08:11:47;;;;;;;6.00;3.00;;;9.20;47.90;;;;;;5018934;28;20447;-43
2021/01/27 08:14:14;;;;;;;5.60;3.43;;;9.20;48.00;;;;;;5030497;28;20836;-43
2021/01/27 08:16:47;;;;;;;4.27;3.73;;;9.10;48.30;;;;;;5029557;28;20193;-42
2021/01/27 08:19:13;;;;;;;4.60;3.83;;;9.20;48.40;;;;;;5028654;28;20780;-44
2021/01/27 08:21:44;;;;;;;5.50;4.20;;;9.20;48.70;;;;;;5027447;28;20519;-43
2021/01/27 08:24:36;;;;;;;7.87;5.00;;;9.30;48.60;;;;;;5019048;28;20193;-44
2021/01/27 08:27:30;;;;;;;6.37;5.37;;;9.20;48.70;;;;;;5020822;28;20446;-43
2021/01/27 08:29:55;;;;;;;4.97;3.83;;;9.20;49.30;;;;;;5013679;28;20511;-42
2021/01/27 08:32:27;;;;;;;7.00;4.00;;;9.30;49.30;;;;;;5021920;28;20436;-42
2021/01/27 08:35:04;;;;;;;8.13;4.03;;;9.30;49.30;;;;;;5026073;28;20190;-43
2021/01/27 08:37:33;;;;;;;5.07;3.87;;;9.20;49.80;;;;;;5022162;28;20439;-43
2021/01/27 08:40:09;;;;;;;4.73;4.20;;;9.20;50.20;;;;;;5021500;28;20440;-42
2021/01/27 08:42:41;;;;;;;5.77;4.70;;;9.30;50.20;;;;;;5018413;28;20782;-42
2021/01/27 08:45:38;;;;;;;4.03;3.63;;;9.40;50.50;;;;;;5022835;28;20459;-42
2021/01/27 08:48:05;;;;;;;6.40;3.77;;;9.30;50.60;;;;;;5011086;28;20449;-43
2021/01/27 08:50:52;;;;;;;5.10;4.13;;;9.40;50.60;;;;;;5024589;28;20578;-42
2021/01/27 08:53:19;;;;;;;7.07;4.40;;;9.40;50.90;;;;;;5019572;28;20436;-42
2021/01/27 08:55:45;;;;;;;5.03;4.03;;;9.40;51.00;;;;;;5020752;28;20432;-42
2021/01/27 08:58:16;;;;;;;8.90;4.53;;;9.40;51.40;;;;;;5023629;28;20482;-42
2021/01/27 09:00:43;;;;;;;4.40;4.00;;;9.40;51.40;;;;;;5027245;28;20208;-42
2021/01/27 09:03:08;;;;;;;9.10;4.80;;;9.50;51.40;;;;;;5021245;28;21169;-43
2021/01/27 09:05:37;;;;;;;4.37;3.97;;;9.30;51.70;;;;;;5028724;28;20507;-42
2021/01/27 09:08:28;;;;;;;4.53;4.07;;;9.20;52.20;;;;;;5028897;28;20594;-44
2021/01/27 09:11:00;;;;;;;9.60;4.10;;;9.30;52.40;;;;;;5019134;28;20457;-42
2021/01/27 09:13:33;;;;;;;4.87;4.20;;;9.30;52.30;;;;;;5028147;28;20936;-43
2021/01/27 09:16:13;;;;;;;4.73;4.13;;;9.30;52.40;;;;;;5024626;28;20439;-43
2021/01/27 09:18:39;;;;;;;5.97;4.30;;;9.20;52.30;;;;;;5023753;28;20431;-42
2021/01/27 09:21:13;;;;;;;5.57;4.43;;;9.20;52.60;;;;;;5029180;28;20482;-42
2021/01/27 09:23:39;;;;;;;5.07;4.60;;;9.00;52.80;;;;;;5029712;28;20486;-43
2021/01/27 09:26:16;;;;;;;8.27;4.40;;;8.90;53.50;;;;;;5028310;28;20431;-42
2021/01/27 09:28:42;;;;;;;7.93;5.00;;;8.70;53.80;;;;;;5026258;28;20487;-43
2021/01/27 09:31:20;;;;;;;9.03;5.37;;;8.70;54.20;;;;;;5027539;28;20501;-42
2021/01/27 09:33:46;;;;;;;8.63;6.20;;;8.90;54.10;;;;;;5021005;28;20451;-43
2021/01/27 09:36:23;;;;;;;7.27;4.90;;;9.00;53.60;;;;;;5022176;28;20828;-42
2021/01/27 09:38:53;;;;;;;6.67;5.80;;;9.00;53.60;;;;;;5029071;28;20436;-42
2021/01/27 09:41:30;;;;;;;5.03;4.27;;;9.10;53.60;;;;;;5023676;28;20472;-43
2021/01/27 09:43:57;;;;;;;5.73;4.30;;;9.20;53.40;;;;;;5021559;28;20530;-43
2021/01/27 09:46:31;;;;;;;4.80;3.97;;;9.10;53.40;;;;;;5021699;28;20800;-43
2021/01/27 09:49:12;;;;;;;6.43;4.47;;;9.10;53.50;;;;;;5031314;28;20541;-43
2021/01/27 09:51:40;;;;;;;6.13;4.07;;;9.10;53.80;;;;;;5012390;28;20501;-43
2021/01/27 09:54:06;;;;;;;6.57;4.50;;;9.10;53.70;;;;;;5024876;28;20502;-42
2021/01/27 09:56:33;;;;;;;6.57;4.90;;;8.90;53.60;;;;;;5027888;28;20949;-43
2021/01/27 09:59:01;;;;;;;7.60;5.83;;;8.50;54.20;;;;;;5026210;28;20935;-43
2021/01/27 10:01:31;;;;;;;8.53;6.60;;;8.30;55.50;;;;;;5028168;28;20451;-43
2021/01/27 10:04:07;;;;;;;8.00;6.23;;;8.10;55.40;;;;;;5025861;28;20429;-43
2021/01/27 10:06:35;;;;;;;6.87;5.90;;;8.10;56.30;;;;;;5025089;28;20441;-43
2021/01/27 10:09:07;;;;;;;5.50;5.00;;;7.60;56.90;;;;;;5017199;28;20542;-43
2021/01/27 10:11:35;;;;;;;6.53;5.90;;;7.70;57.30;;;;;;5022929;28;20804;-43
2021/01/27 10:14:13;;;;;;;5.57;4.20;;;7.90;57.10;;;;;;5017025;28;20918;-43
2021/01/27 10:16:57;;;;;;;4.43;4.00;;;7.50;56.60;;;;;;5021497;28;20440;-43
2021/01/27 10:19:26;;;;;;;5.23;4.20;;;7.60;57.10;;;;;;5025085;28;20527;-43
2021/01/27 10:21:54;;;;;;;4.47;3.63;;;7.70;57.20;;;;;;5022741;28;20432;-43
2021/01/27 10:24:45;;;;;;;3.80;3.50;;;7.90;57.00;;;;;;5030717;28;22360;-43
2021/01/27 10:27:24;;;;;;;3.60;3.27;;;8.10;56.40;;;;;;5029955;28;20531;-43
2021/01/27 10:29:51;;;;;;;3.70;3.07;;;8.20;55.70;;;;;;5021036;28;21053;-43
2021/01/27 10:32:37;;;;;;;4.33;2.93;;;8.30;55.60;;;;;;5030619;28;20437;-43
2021/01/27 10:35:23;;;;;;;2.77;2.57;;;8.30;55.70;;;;;;5031615;28;20514;-43
2021/01/27 10:38:17;;;;;;;5.60;3.67;;;8.40;55.50;;;;;;5022045;28;20436;-43
2021/01/27 10:41:05;;;;;;;5.83;3.00;;;8.20;55.60;;;;;;5032972;28;20840;-43
2021/01/27 10:43:31;;;;;;;4.00;2.50;;;8.10;56.00;;;;;;5029678;28;20440;-43
2021/01/27 10:45:56;;;;;;;3.07;2.80;;;7.90;56.20;;;;;;5027872;28;20443;-42
2021/01/27 10:48:26;;;;;;;2.63;2.40;;;7.60;56.50;;;;;;5027578;28;20237;-43
2021/01/27 10:51:05;;;;;;;5.27;2.77;;;7.70;57.10;;;;;;5030765;28;20684;-42
2021/01/27 10:53:36;;;;;;;3.30;2.93;;;7.60;57.10;;;;;;5027521;28;20946;-43
2021/01/27 10:56:03;;;;;;;6.30;3.40;;;7.70;57.30;;;;;;5028358;28;20432;-44
2021/01/27 10:58:28;;;;;;;4.90;2.73;;;7.80;57.20;;;;;;5019048;28;20592;-43
2021/01/27 11:00:54;;;;;;;3.90;2.80;;;7.30;56.80;;;;;;5032436;28;20519;-43
2021/01/27 11:03:20;;;;;;;3.00;2.60;;;7.30;58.10;;;;;;5028682;28;20200;-43
2021/01/27 11:05:46;;;;;;;5.00;2.90;;;7.30;58.30;;;;;;5030650;28;20239;-43
2021/01/27 11:08:18;;;;;;;3.07;2.27;;;7.40;58.20;;;;;;5029014;28;20229;-42
2021/01/27 11:10:44;;;;;;;5.47;2.67;;;7.80;57.10;;;;;;5030788;28;20452;-43
2021/01/27 11:13:10;;;;;;;3.40;2.90;;;7.80;56.50;;;;;;5028478;28;20463;-43
2021/01/27 11:15:35;;;;;;;6.67;3.90;;;7.50;56.80;;;;;;5029936;28;20208;-42
2021/01/27 11:18:01;;;;;;;3.53;3.03;;;7.50;57.60;;;;;;5029282;28;20190;-43
2021/01/27 11:20:26;;;;;;;3.27;2.97;;;7.60;57.70;;;;;;5026140;28;20197;-43
2021/01/27 11:22:53;;;;;;;3.27;2.83;;;7.60;57.10;;;;;;5026587;28;20209;-43
2021/01/27 11:25:23;;;;;;;3.00;2.80;;;7.30;57.20;;;;;;5029857;28;20774;-43
2021/01/27 11:27:49;;;;;;;4.90;2.73;;;7.60;57.10;;;;;;5021144;28;20444;-43
2021/01/27 11:30:18;;;;;;;4.00;2.70;;;7.70;57.00;;;;;;5026114;28;20487;-44
2021/01/27 11:32:43;;;;;;;4.33;3.13;;;7.70;56.80;;;;;;5028426;28;20435;-43
2021/01/27 11:35:10;;;;;;;3.50;2.50;;;7.70;56.60;;;;;;5028066;28;20479;-43
2021/01/27 11:37:35;;;;;;;2.80;2.50;;;7.90;56.50;;;;;;5017814;28;20204;-42
2021/01/27 11:40:01;;;;;;;4.53;2.77;;;7.70;56.30;;;;;;5025073;28;20436;-42
2021/01/27 11:42:27;;;;;;;4.70;2.63;;;7.60;56.20;;;;;;5025115;28;20198;-42
2021/01/27 11:44:53;;;;;;;3.90;2.70;;;7.50;56.50;;;;;;5026180;28;20794;-43
2021/01/27 11:47:19;;;;;;;3.13;2.83;;;7.60;56.90;;;;;;5019019;28;20826;-42
2021/01/27 11:49:46;;;;;;;4.73;3.10;;;7.60;57.20;;;;;;5028933;28;20483;-43
2021/01/27 11:52:12;;;;;;;3.40;3.10;;;7.60;57.30;;;;;;5027448;28;20201;-42
2021/01/27 11:54:40;;;;;;;5.37;3.00;;;7.60;57.40;;;;;;5028757;28;20455;-42
2021/01/27 11:57:06;;;;;;;3.77;3.13;;;7.60;57.70;;;;;;5025202;28;20939;-42
2021/01/27 11:59:32;;;;;;;3.20;2.90;;;7.40;57.90;;;;;;5029545;28;20455;-42
2021/01/27 12:01:59;;;;;;;3.63;3.33;;;7.10;58.30;;;;;;5028575;28;20456;-42
2021/01/27 12:04:25;;;;;;;3.63;2.90;;;6.90;58.80;;;;;;5028563;28;20440;-42
2021/01/27 12:06:50;;;;;;;4.40;3.50;;;6.90;59.10;;;;;;5024633;28;20474;-42
2021/01/27 12:09:16;;;;;;;3.43;3.10;;;6.90;59.20;;;;;;5018501;28;20671;-42
2021/01/27 12:11:42;;;;;;;3.67;3.10;;;6.80;59.30;;;;;;5031374;28;20197;-42
2021/01/27 12:14:08;;;;;;;3.27;2.97;;;7.10;59.60;;;;;;5027468;28;20193;-42
2021/01/27 12:16:34;;;;;;;3.90;3.50;;;7.30;59.10;;;;;;5028685;28;20430;-42
2021/01/27 12:18:59;;;;;;;4.03;3.10;;;7.60;57.50;;;;;;5029768;28;20687;-42
2021/01/27 12:21:25;;;;;;;3.90;3.30;;;7.70;56.90;;;;;;5027728;28;20201;-42
2021/01/27 12:23:50;;;;;;;8.13;2.90;;;7.60;57.00;;;;;;5027219;28;20221;-42
2021/01/27 12:26:16;;;;;;;5.47;3.17;;;7.60;58.00;;;;;;5029160;28;20200;-42
2021/01/27 12:28:42;;;;;;;3.20;2.87;;;7.60;57.20;;;;;;5028011;28;20229;-42
2021/01/27 12:31:09;;;;;;;6.80;3.33;;;7.80;57.30;;;;;;5028792;28;20649;-43
2021/01/27 12:33:35;;;;;;;2.93;2.60;;;7.70;57.40;;;;;;5028758;28;20620;-42
2021/01/27 12:36:00;;;;;;;2.73;2.53;;;7.70;57.50;;;;;;5026919;28;20522;-42
2021/01/27 12:38:26;;;;;;;3.00;2.60;;;7.60;57.40;;;;;;5028113;28;20193;-43
2021/01/27 12:40:51;;;;;;;2.50;2.30;;;7.70;57.50;;;;;;5026263;28;20270;-42
2021/01/27 12:43:18;;;;;;;3.43;2.60;;;7.70;57.40;;;;;;5028185;28;20193;-42
2021/01/27 12:45:43;;;;;;;5.27;4.00;;;7.80;57.50;;;;;;5024206;28;20591;-43
2021/01/27 12:48:09;;;;;;;3.83;2.47;;;7.90;59.70;;;;;;5025507;28;20475;-43
2021/01/27 12:50:35;;;;;;;4.80;2.07;;;8.40;59.20;;;;;;5025599;28;20228;-43
2021/01/27 12:53:00;;;;;;;5.20;2.80;;;8.70;56.50;;;;;;5025727;28;20541;-44
2021/01/27 12:55:26;;;;;;;2.43;2.20;;;8.90;56.00;;;;;;5026917;28;20251;-43
2021/01/27 12:57:51;;;;;;;4.10;2.77;;;9.20;56.70;;;;;;5013302;28;20193;-43
2021/01/27 13:00:23;;;;;;;2.60;2.40;;;9.50;55.50;;;;;;5031388;28;20204;-43
2021/01/27 13:02:53;;;;;;;3.07;2.77;;;9.80;55.40;;;;;;5027813;28;20636;-43
2021/01/27 13:05:21;;;;;;;3.97;2.67;;;10.00;53.20;;;;;;5028942;28;21019;-43
2021/01/27 13:07:47;;;;;;;2.47;2.27;;;10.40;53.10;;;;;;5026533;28;20472;-43
2021/01/27 13:10:13;;;;;;;2.73;2.53;;;10.60;52.90;;;;;;5023533;28;20490;-44
2021/01/27 13:12:39;;;;;;;3.63;2.70;;;10.80;52.20;;;;;;5025619;28;20275;-43
2021/01/27 13:15:07;;;;;;;2.60;2.30;;;10.90;51.80;;;;;;5026912;28;20530;-43
2021/01/27 13:17:33;;;;;;;3.10;2.23;;;10.80;51.20;;;;;;5023330;28;20429;-43
2021/01/27 13:19:59;;;;;;;2.33;2.10;;;10.80;50.90;;;;;;5025797;28;20493;-43
2021/01/27 13:22:24;;;;;;;2.70;2.50;;;10.60;50.30;;;;;;5013952;28;20440;-44
2021/01/27 13:24:50;;;;;;;4.43;3.00;;;10.30;50.80;;;;;;5021526;28;20421;-43